LFOH METAR and TAF | Updated Today

LFOH METAR

Le Havre Octeville Airport

Observation time: 13 min. ago

LFOH 292230Z AUTO 05013KT CAVOK 11/09 Q1024

Need help? Read our tutorial on how to read METARs or read the parsed version below.

Le Havre Octeville Airport (LFOH) METAR

  • Weather conditions on Mon, 29 May 2023 22:30:00 +0000 (13 min. ago):
  • Present conditions: Dry
  • Clouds: Clear skies
  • Visibility: Greater than 10 km
  • Wind: 50 degrees at 13 knots
  • Temperature: 11 celsius
  • Dew point: 9 celsius
  • Pressure: 1024 millibars
  • Remarks: None


Useful to know...

LFOH TAF

Le Havre Octeville Airport

TAF LFOH 291100Z 2912/3012 05015KT CAVOK TEMPO 2912/2921 05017G27KT
Observation time: 11:43 hr. ago
Need help? Read our tutorial on how to read TAFs or read the parsed version below.

Parsed version of TAF for Le Havre Octeville Airport (LFOH)

  • From 29 May at 12:00 UTC, to day 30 of the month at 12:00 UTC
  • Visibility: Greater than 10 km
  • Wind: 50 degrees at 15
  • Expected to arise temporarily, from 29 May at 12:00 UTC, to day 29 of the month at 21:00 UTC
  • Wind: 50 degrees at 17